KPVW/PVW METAR and TAF weather

Enter ICAO airport designator
Station Type Date Time Source
KPVW METAR 2021/07/26 16:35 UTC NOAA

KPVW 261635Z AUTO 11008KT 10SM CLR 25/19 A3013 RMK AO2 T02530188 TSNO


Station Type Date Time Source
KPVW Decoded METAR 2021/07/26 16:35 UTC NOAA

Plainview, Hale County Airport, TX, United States (KPVW) 34-10-05N 101-43-02W
Jul 26, 2021 - 12:35 PM EDT / 2021.07.26 1635 UTC
Wind: from the ESE (110 degrees) at 9 MPH (8 KT):0
Visibility: 10 mile(s):0
Sky conditions: clear
Temperature: 77.5 F (25.3 C)
Dew Point: 65.8 F (18.8 C)
Relative Humidity: 67%
Pressure (altimeter): 30.13 in. Hg (1020 hPa)
ob: KPVW 261635Z AUTO 11008KT 10SM CLR 25/19 A3013 RMK AO2 T02530188 TSNO
cycle: 16

Station Type Date Time Source
KPVW TAF 2021/07/26 12:22 UTC NOAA

TAF KPVW 261120Z 2612/2712 VRB06KT P6SM VCTS BKN080CB OVC250
FM261400 VRB06KT P6SM SCT080 SCT250

Example: see airport list